Time;durP1;ratioP1;P1;durP2;ratioP2;P2;SDS_P1;SDS_P2;PMS_P1;PMS_P2;Temp;Humidity;BMP_temperature;BMP_pressure;BME280_temperature;BME280_humidity;BME280_pressure;Samples;Min_cycle;Max_cycle;Signal;HPM_P1;HPM_P2
2024/01/07 00:00:00;;;;;;;;;;;;;;;;;;4969394;28;19914;-42
2024/01/07 06:00:46;;;;;;;;;;;;;;;;;;5879601;23;19929;-46
2024/01/07 06:03:12;;;;;;;;;;;;;;;;;;4989837;28;20300;-45
2024/01/07 06:05:38;;;;;;;;;;;;;;;;;;4989547;28;20462;-45
2024/01/07 06:08:04;;;;;;;;;;;;;;;;;;4990212;28;19910;-46
2024/01/07 06:10:30;;;;;;;;;;;;;;;;;;4989539;28;19964;-46
2024/01/07 06:12:56;;;;;;;;;;;;;;;;;;4989971;28;20434;-45
2024/01/07 06:15:22;;;;;;;;;;;;;;;;;;4989680;28;19910;-46
2024/01/07 06:17:48;;;;;;;;;;;;;;;;;;4989662;28;20009;-46
2024/01/07 06:20:14;;;;;;;;;;;;;;;;;;4989653;28;19925;-46
2024/01/07 06:22:40;;;;;;;;;;;;;;;;;;4989845;28;19917;-45
2024/01/07 06:25:06;;;;;;;;;;;;;;;;;;4989553;28;19922;-46
2024/01/07 06:27:32;;;;;;;;;;;;;;;;;;4989645;28;19913;-47
2024/01/07 06:29:58;;;;;;;;;;;;;;;;;;4989323;28;19906;-45
2024/01/07 06:32:25;;;;;;;;;;;;;;;;;;4989656;28;19957;-45
2024/01/07 06:34:51;;;;;;;;;;;;;;;;;;4989531;28;19912;-48
2024/01/07 06:37:17;;;;;;;;;;;;;;;;;;4992984;28;20336;-48
2024/01/07 06:39:43;;;;;;;;;;;;;;;;;;4993192;28;20000;-47
2024/01/07 06:42:09;;;;;;;;;;;;;;;;;;4993336;28;20134;-45
2024/01/07 06:44:35;;;;;;;;;;;;;;;;;;4993171;28;19910;-47
2024/01/07 06:47:01;;;;;;;;;;;;;;;;;;4992666;28;19910;-49
2024/01/07 06:49:27;;;;;;;;;;;;;;;;;;4993268;28;20004;-49
2024/01/07 06:51:53;;;;;;;;;;;;;;;;;;4994630;28;19991;-46
2024/01/07 06:54:18;;;;;;;;;;;;;;;;;;4993959;28;19913;-45
2024/01/07 06:56:44;;;;;;;;;;;;;;;;;;4990891;28;20324;-49
2024/01/07 06:59:10;;;;;;;;;;;;;;;;;;4992224;28;20032;-46
2024/01/07 07:01:36;;;;;;;;;;;;;;;;;;4992560;28;19929;-46
2024/01/07 07:04:02;;;;;;;;;;;;;;;;;;4992867;28;19910;-46
2024/01/07 07:06:28;;;;;;;;;;;;;;;;;;4992663;28;19933;-46
2024/01/07 07:08:54;;;;;;;;;;;;;;;;;;4992807;28;19913;-46
2024/01/07 07:11:20;;;;;;;;;;;;;;;;;;4992597;28;19972;-46
2024/01/07 07:13:46;;;;;;;;;;;;;;;;;;4992905;28;19914;-47
2024/01/07 07:16:12;;;;;;;;;;;;;;;;;;4992621;28;19909;-45
2024/01/07 07:18:37;;;;;;;;;;;;;;;;;;4991368;28;19921;-45
2024/01/07 07:21:03;;;;;;;;;;;;;;;;;;4992443;28;19914;-45
2024/01/07 07:23:30;;;;;;;;;;;;;;;;;;4992595;28;19914;-46
2024/01/07 07:25:56;;;;;;;;;;;;;;;;;;4992107;28;20328;-46
2024/01/07 07:28:22;;;;;;;;;;;;;;;;;;4992275;28;20005;-45
2024/01/07 07:30:47;;;;;;;;;;;;;;;;;;4992682;28;19956;-45
2024/01/07 07:33:13;;;;;;;;;;;;;;;;;;4992353;28;20114;-45
2024/01/07 07:35:40;;;;;;;;;;;;;;;;;;4992170;28;20119;-46
2024/01/07 07:38:06;;;;;;;;;;;;;;;;;;4992107;28;20313;-46
2024/01/07 07:40:32;;;;;;;;;;;;;;;;;;4991850;28;19917;-45
2024/01/07 07:42:58;;;;;;;;;;;;;;;;;;4992210;28;19910;-46
2024/01/07 07:45:24;;;;;;;;;;;;;;;;;;4992131;28;19909;-46
2024/01/07 07:47:50;;;;;;;;;;;;;;;;;;4991430;28;19909;-45
2024/01/07 07:50:16;;;;;;;;;;;;;;;;;;4992288;28;19921;-47
2024/01/07 07:52:43;;;;;;;;;;;;;;;;;;4991869;28;19910;-47
2024/01/07 07:55:09;;;;;;;;;;;;;;;;;;4991950;28;20610;-45
2024/01/07 07:57:35;;;;;;;;;;;;;;;;;;4991741;28;19914;-46
2024/01/07 08:00:01;;;;;;;;;;;;;;;;;;4991859;28;20417;-46
2024/01/07 08:02:27;;;;;;;;;;;;;;;;;;4991365;28;19925;-46
2024/01/07 08:04:53;;;;;;;;;;;;;;;;;;4991695;28;20376;-50
2024/01/07 08:07:18;;;;;;;;;;;;;;;;;;4991796;28;19910;-45
2024/01/07 08:09:44;;;;;;;;;;;;;;;;;;4991688;28;20376;-46
2024/01/07 08:12:11;;;;;;;;;;;;;;;;;;4991384;28;20376;-50
2024/01/07 08:14:40;;;;;;;;;;;;;;;;;;4991515;28;19937;-44
2024/01/07 08:17:06;;;;;;;;;;;;;;;;;;4991424;28;19917;-47
2024/01/07 08:19:32;;;;;;;;;;;;;;;;;;4991386;28;19913;-46
2024/01/07 08:21:58;;;;;;;;;;;;;;;;;;4991090;28;19913;-46
2024/01/07 08:24:24;;;;;;;;;;;;;;;;;;4991431;28;20025;-47
2024/01/07 08:26:50;;;;;;;;;;;;;;;;;;4988674;28;19921;-45
2024/01/07 08:29:16;;;;;;;;;;;;;;;;;;4988017;28;19925;-46
2024/01/07 08:31:42;;;;;;;;;;;;;;;;;;4984994;28;19968;-46
2024/01/07 08:34:08;;;;;;;;;;;;;;;;;;4972945;28;19910;-47
2024/01/07 08:36:33;;;;;;;;;;;;;;;;;;4984569;28;20292;-45
2024/01/07 08:39:00;;;;;;;;;;;;;;;;;;4991684;28;19913;-46
2024/01/07 08:41:26;;;;;;;;;;;;;;;;;;4992098;28;20292;-46
2024/01/07 08:43:51;;;;;;;;;;;;;;;;;;4991920;28;19910;-45
2024/01/07 08:46:18;;;;;;;;;;;;;;;;;;4992212;28;19917;-45
2024/01/07 08:48:44;;;;;;;;;;;;;;;;;;4991693;28;19913;-46
2024/01/07 08:51:10;;;;;;;;;;;;;;;;;;4991549;28;19956;-48
2024/01/07 08:53:36;;;;;;;;;;;;;;;;;;4991401;28;20388;-46
2024/01/07 08:56:02;;;;;;;;;;;;;;;;;;4991626;28;19949;-47
2024/01/07 08:58:28;;;;;;;;;;;;;;;;;;4990498;28;19930;-46
2024/01/07 09:00:54;;;;;;;;;;;;;;;;;;4991832;28;19921;-45
2024/01/07 09:03:20;;;;;;;;;;;;;;;;;;4992085;28;20368;-45
2024/01/07 09:05:46;;;;;;;;;;;;;;;;;;4990454;28;19928;-46
2024/01/07 09:08:14;;;;;;;;;;;;;;;;;;4991228;28;19921;-46
2024/01/07 09:10:40;;;;;;;;;;;;;;;;;;4990999;28;19914;-45
2024/01/07 09:13:06;;;;;;;;;;;;;;;;;;4991521;28;19921;-47
2024/01/07 09:15:32;;;;;;;;;;;;;;;;;;4991623;28;19996;-49
2024/01/07 09:17:57;;;;;;;;;;;;;;;;;;4988878;28;19920;-45
2024/01/07 09:20:23;;;;;;;;;;;;;;;;;;4989531;28;20446;-45
2024/01/07 09:22:49;;;;;;;;;;;;;;;;;;4989946;28;19917;-46
2024/01/07 09:25:16;;;;;;;;;;;;;;;;;;4990341;28;20001;-45
2024/01/07 09:27:42;;;;;;;;;;;;;;;;;;4989791;28;19917;-47
2024/01/07 09:30:10;;;;;;;;;;;;;;;;;;4989404;28;19914;-46
2024/01/07 09:32:36;;;;;;;;;;;;;;;;;;4989387;28;19918;-47
2024/01/07 09:35:03;;;;;;;;;;;;;;;;;;4990010;28;20277;-46
2024/01/07 09:37:29;;;;;;;;;;;;;;;;;;4989274;28;19921;-47
2024/01/07 09:39:54;;;;;;;;;;;;;;;;;;4986121;28;19918;-46
2024/01/07 09:42:20;;;;;;;;;;;;;;;;;;4991177;28;20348;-45
2024/01/07 09:44:46;;;;;;;;;;;;;;;;;;4991425;28;19910;-46
2024/01/07 09:47:12;;;;;;;;;;;;;;;;;;4988826;28;19914;-45
2024/01/07 09:49:38;;;;;;;;;;;;;;;;;;4996000;28;20392;-46
2024/01/07 09:52:04;;;;;;;;;;;;;;;;;;4995690;28;19937;-46
2024/01/07 09:54:30;;;;;;;;;;;;;;;;;;4991823;28;19996;-48
2024/01/07 09:56:56;;;;;;;;;;;;;;;;;;4992021;28;19941;-46
2024/01/07 09:59:22;;;;;;;;;;;;;;;;;;4990560;28;20595;-46
2024/01/07 10:01:48;;;;;;;;;;;;;;;;;;4991724;28;20009;-48
2024/01/07 10:04:14;;;;;;;;;;;;;;;;;;4990970;28;19910;-46
2024/01/07 10:06:40;;;;;;;;;;;;;;;;;;4991721;28;19937;-46
2024/01/07 10:11:41;;;;;;;;;;;;;;;;;;5310311;23;19926;-47
2024/01/07 10:14:07;;;;;;;;;;;;;;;;;;4964454;28;19921;-46
2024/01/07 10:16:33;;;;;;;;;;;;;;;;;;4956663;29;19910;-49
2024/01/07 10:18:59;;;;;;;;;;;;;;;;;;4944727;28;19926;-48
2024/01/07 10:21:25;;;;;;;;;;;;;;;;;;4956101;28;19965;-47
2024/01/07 10:23:51;;;;;;;;;;;;;;;;;;4952507;28;19918;-48
2024/01/07 10:26:17;;;;;;;;;;;;;;;;;;4944513;28;20356;-48
2024/01/07 10:28:43;;;;;;;;;;;;;;;;;;4955994;28;19943;-47
2024/01/07 10:31:09;;;;;;;;;;;;;;;;;;4955475;28;20331;-48
2024/01/07 10:33:35;;;;;;;;;;;;;;;;;;4955824;28;19930;-45
2024/01/07 10:36:01;;;;;;;;;;;;;;;;;;4962553;28;19942;-46
2024/01/07 10:38:26;;;;;;;;;;;;;;;;;;4975739;28;19910;-47
2024/01/07 10:40:52;;;;;;;;;;;;;;;;;;4956917;28;19922;-46
2024/01/07 10:43:18;;;;;;;;;;;;;;;;;;4959692;28;19918;-47
2024/01/07 10:45:44;;;;;;;;;;;;;;;;;;4974461;28;19964;-46
2024/01/07 10:48:10;;;;;;;;;;;;;;;;;;4955775;28;19914;-50
2024/01/07 10:50:36;;;;;;;;;;;;;;;;;;4959628;28;20404;-47
2024/01/07 10:53:02;;;;;;;;;;;;;;;;;;4967146;28;19910;-46
2024/01/07 10:55:28;;;;;;;;;;;;;;;;;;4975895;28;19917;-47
2024/01/07 10:57:54;;;;;;;;;;;;;;;;;;4957846;28;19913;-49
2024/01/07 11:00:21;;;;;;;;;;;;;;;;;;4955982;29;20288;-48
2024/01/07 11:02:46;;;;;;;;;;;;;;;;;;4956118;28;19962;-46
2024/01/07 11:05:13;;;;;;;;;;;;;;;;;;4955827;29;19910;-45
2024/01/07 11:07:39;;;;;;;;;;;;;;;;;;4955987;29;19911;-47
2024/01/07 11:10:05;;;;;;;;;;;;;;;;;;4962360;28;19938;-46
2024/01/07 11:23:30;;;;;;;;;;;;;;;;;;4961413;28;19997;-47
2024/01/07 11:25:55;;;;;;;;;;;;;;;;;;4972258;28;19965;-48
2024/01/07 11:28:21;;;;;;;;;;;;;;;;;;4965742;28;19911;-47
2024/01/07 11:30:49;;;;;;;;;;;;;;;;;;4935782;29;19911;-46
2024/01/07 11:33:15;;;;;;;;;;;;;;;;;;4936760;29;20482;-47
2024/01/07 11:35:41;;;;;;;;;;;;;;;;;;4950327;29;19911;-46
2024/01/07 11:38:07;;;;;;;;;;;;;;;;;;4955163;29;19921;-46
2024/01/07 11:40:33;;;;;;;;;;;;;;;;;;4954681;29;20350;-47
2024/01/07 11:42:59;;;;;;;;;;;;;;;;;;4955094;29;19921;-47
2024/01/07 11:45:25;;;;;;;;;;;;;;;;;;4954654;29;20400;-47
2024/01/07 11:47:50;;;;;;;;;;;;;;;;;;4954575;29;19922;-47
2024/01/07 11:50:16;;;;;;;;;;;;;;;;;;4955173;29;20147;-48
2024/01/07 11:52:42;;;;;;;;;;;;;;;;;;4954527;29;19910;-48
2024/01/07 11:55:09;;;;;;;;;;;;;;;;;;4954421;29;19918;-47
2024/01/07 11:57:34;;;;;;;;;;;;;;;;;;4951781;28;19911;-48
2024/01/07 12:00:00;;;;;;;;;;;;;;;;;;4947000;28;20267;-46
2024/01/07 12:02:30;;;;;;;;;;;;;;;;;;4935098;28;19918;-50
2024/01/07 12:04:56;;;;;;;;;;;;;;;;;;4934976;29;19911;-47
2024/01/07 12:07:21;;;;;;;;;;;;;;;;;;4935246;29;19922;-49
2024/01/07 12:09:47;;;;;;;;;;;;;;;;;;4939566;28;19915;-50
2024/01/07 12:12:13;;;;;;;;;;;;;;;;;;4955624;28;19968;-46
2024/01/07 12:14:39;;;;;;;;;;;;;;;;;;4935076;29;19934;-47
2024/01/07 12:17:05;;;;;;;;;;;;;;;;;;4938868;29;20305;-48
2024/01/07 12:19:31;;;;;;;;;;;;;;;;;;4940650;29;20013;-48
2024/01/07 12:21:57;;;;;;;;;;;;;;;;;;4934551;29;20370;-47
2024/01/07 12:24:23;;;;;;;;;;;;;;;;;;4934644;29;19911;-48
2024/01/07 12:26:48;;;;;;;;;;;;;;;;;;4934701;29;19983;-46
2024/01/07 12:29:14;;;;;;;;;;;;;;;;;;4934347;29;19911;-50
2024/01/07 12:31:41;;;;;;;;;;;;;;;;;;4937914;29;19919;-47
2024/01/07 12:34:07;;;;;;;;;;;;;;;;;;4952530;28;19910;-47
2024/01/07 12:36:34;;;;;;;;;;;;;;;;;;4950915;28;19934;-45
2024/01/07 12:38:59;;;;;;;;;;;;;;;;;;4951044;28;20357;-48
2024/01/07 12:41:25;;;;;;;;;;;;;;;;;;4951551;29;19949;-46
2024/01/07 12:43:51;;;;;;;;;;;;;;;;;;4934128;29;19915;-46
2024/01/07 12:46:17;;;;;;;;;;;;;;;;;;4932690;29;19911;-46
2024/01/07 12:48:43;;;;;;;;;;;;;;;;;;4941211;29;19915;-45
2024/01/07 12:51:09;;;;;;;;;;;;;;;;;;4951791;29;19914;-47
2024/01/07 12:53:36;;;;;;;;;;;;;;;;;;4950828;28;20368;-45
2024/01/07 12:56:01;;;;;;;;;;;;;;;;;;4950886;28;19910;-47
2024/01/07 12:58:27;;;;;;;;;;;;;;;;;;4951368;29;19965;-46
2024/01/07 13:00:53;;;;;;;;;;;;;;;;;;4951009;29;20297;-47
2024/01/07 13:03:19;;;;;;;;;;;;;;;;;;4939466;29;20017;-45
2024/01/07 13:05:49;;;;;;;;;;;;;;;;;;4930984;29;19911;-46
2024/01/07 13:08:15;;;;;;;;;;;;;;;;;;4936681;29;20264;-46
2024/01/07 13:10:41;;;;;;;;;;;;;;;;;;4959906;28;20020;-46
2024/01/07 13:13:09;;;;;;;;;;;;;;;;;;4939606;29;20382;-47
2024/01/07 13:15:35;;;;;;;;;;;;;;;;;;4930613;29;20009;-46
2024/01/07 13:18:02;;;;;;;;;;;;;;;;;;4943718;29;20324;-47
2024/01/07 13:20:28;;;;;;;;;;;;;;;;;;4940834;28;20413;-46
2024/01/07 13:22:54;;;;;;;;;;;;;;;;;;4938697;29;19915;-46
2024/01/07 13:25:20;;;;;;;;;;;;;;;;;;4940901;28;19941;-46
2024/01/07 13:27:45;;;;;;;;;;;;;;;;;;4945696;28;19920;-46
2024/01/07 13:30:11;;;;;;;;;;;;;;;;;;4948824;29;20357;-45
2024/01/07 13:32:37;;;;;;;;;;;;;;;;;;4931019;28;19974;-46
2024/01/07 13:35:03;;;;;;;;;;;;;;;;;;4948607;28;20468;-48
2024/01/07 13:37:30;;;;;;;;;;;;;;;;;;4938147;29;19918;-49
2024/01/07 13:39:56;;;;;;;;;;;;;;;;;;4931966;29;19914;-47
2024/01/07 13:42:22;;;;;;;;;;;;;;;;;;4943288;28;19969;-46
2024/01/07 13:44:48;;;;;;;;;;;;;;;;;;4936293;29;20350;-47
2024/01/07 13:47:14;;;;;;;;;;;;;;;;;;4939939;28;19941;-46
2024/01/07 13:49:40;;;;;;;;;;;;;;;;;;4948030;28;20437;-45
2024/01/07 13:52:06;;;;;;;;;;;;;;;;;;4932837;29;19958;-46
2024/01/07 13:54:32;;;;;;;;;;;;;;;;;;4944462;29;19989;-49
2024/01/07 13:56:58;;;;;;;;;;;;;;;;;;4936205;29;19915;-47
2024/01/07 13:59:24;;;;;;;;;;;;;;;;;;4932625;28;19942;-45
2024/01/07 14:01:50;;;;;;;;;;;;;;;;;;4933338;29;19923;-45
2024/01/07 14:04:16;;;;;;;;;;;;;;;;;;4942850;28;19914;-46
2024/01/07 14:06:43;;;;;;;;;;;;;;;;;;4930816;29;19926;-46
2024/01/07 14:09:09;;;;;;;;;;;;;;;;;;4938680;28;19918;-48
2024/01/07 14:11:35;;;;;;;;;;;;;;;;;;4929867;29;20034;-49
2024/01/07 14:14:01;;;;;;;;;;;;;;;;;;4930741;29;19970;-45
2024/01/07 14:16:27;;;;;;;;;;;;;;;;;;4940396;29;19957;-48
2024/01/07 14:18:53;;;;;;;;;;;;;;;;;;4935234;28;19980;-47
2024/01/07 14:21:19;;;;;;;;;;;;;;;;;;4947497;29;19930;-46
2024/01/07 14:23:45;;;;;;;;;;;;;;;;;;4934941;28;19941;-46
2024/01/07 14:26:10;;;;;;;;;;;;;;;;;;4951082;28;19944;-45
2024/01/07 14:28:36;;;;;;;;;;;;;;;;;;4947801;28;19919;-46
2024/01/07 14:31:03;;;;;;;;;;;;;;;;;;4940092;28;19922;-47
2024/01/07 14:33:29;;;;;;;;;;;;;;;;;;4942645;29;20005;-47
2024/01/07 14:35:55;;;;;;;;;;;;;;;;;;4936490;29;20001;-46
2024/01/07 14:38:21;;;;;;;;;;;;;;;;;;4934406;29;20239;-46
2024/01/07 14:40:47;;;;;;;;;;;;;;;;;;4940912;28;19919;-48
2024/01/07 14:43:12;;;;;;;;;;;;;;;;;;4936694;28;19914;-46
2024/01/07 14:45:38;;;;;;;;;;;;;;;;;;4937824;29;20013;-48
2024/01/07 14:48:04;;;;;;;;;;;;;;;;;;4935515;28;20402;-47
2024/01/07 14:50:30;;;;;;;;;;;;;;;;;;4942045;28;19922;-47
2024/01/07 14:52:56;;;;;;;;;;;;;;;;;;4940395;28;19922;-46
2024/01/07 14:55:22;;;;;;;;;;;;;;;;;;4943379;29;19914;-47
2024/01/07 14:57:49;;;;;;;;;;;;;;;;;;4946175;28;19982;-47
2024/01/07 15:00:15;;;;;;;;;;;;;;;;;;4940787;28;19929;-45
2024/01/07 15:02:40;;;;;;;;;;;;;;;;;;4943704;29;19915;-46
2024/01/07 15:05:06;;;;;;;;;;;;;;;;;;4950961;29;20066;-46
2024/01/07 15:07:32;;;;;;;;;;;;;;;;;;4942901;29;19925;-47
2024/01/07 15:09:59;;;;;;;;;;;;;;;;;;4933693;28;19915;-46
2024/01/07 15:12:25;;;;;;;;;;;;;;;;;;4934532;28;20002;-46
2024/01/07 15:14:51;;;;;;;;;;;;;;;;;;4939135;29;19919;-47
2024/01/07 15:17:18;;;;;;;;;;;;;;;;;;4945281;29;19914;-46
2024/01/07 15:19:45;;;;;;;;;;;;;;;;;;4941387;29;20281;-46
2024/01/07 15:22:11;;;;;;;;;;;;;;;;;;4936007;28;20326;-47
2024/01/07 15:24:37;;;;;;;;;;;;;;;;;;4933676;29;19953;-49
2024/01/07 15:27:03;;;;;;;;;;;;;;;;;;4940552;28;19918;-46
2024/01/07 15:29:29;;;;;;;;;;;;;;;;;;4937147;28;20005;-46
2024/01/07 15:31:55;;;;;;;;;;;;;;;;;;4933748;28;19958;-46
2024/01/07 15:34:21;;;;;;;;;;;;;;;;;;4934988;29;19961;-46
2024/01/07 15:36:46;;;;;;;;;;;;;;;;;;4935342;29;19977;-45
2024/01/07 15:39:12;;;;;;;;;;;;;;;;;;4933232;28;19969;-49
2024/01/07 15:41:38;;;;;;;;;;;;;;;;;;4932947;28;19919;-47
2024/01/07 15:44:04;;;;;;;;;;;;;;;;;;4938248;28;19915;-44
2024/01/07 15:46:30;;;;;;;;;;;;;;;;;;4941926;28;19961;-46
2024/01/07 15:48:56;;;;;;;;;;;;;;;;;;4937052;29;20009;-45
2024/01/07 15:51:22;;;;;;;;;;;;;;;;;;4940853;28;19925;-46
2024/01/07 15:53:47;;;;;;;;;;;;;;;;;;4936920;28;19969;-48
2024/01/07 15:56:16;;;;;;;;;;;;;;;;;;4937638;29;19915;-46
2024/01/07 15:58:42;;;;;;;;;;;;;;;;;;4933880;29;19914;-45
2024/01/07 16:01:08;;;;;;;;;;;;;;;;;;4942012;29;19945;-45
2024/01/07 16:03:34;;;;;;;;;;;;;;;;;;4941755;28;20401;-48
2024/01/07 16:06:00;;;;;;;;;;;;;;;;;;4933971;28;20424;-46
2024/01/07 16:08:28;;;;;;;;;;;;;;;;;;4935993;28;19923;-45
2024/01/07 16:10:53;;;;;;;;;;;;;;;;;;4937400;28;19982;-49
2024/01/07 16:13:19;;;;;;;;;;;;;;;;;;4936164;29;20361;-47
2024/01/07 16:15:45;;;;;;;;;;;;;;;;;;4934115;29;19915;-45
2024/01/07 16:18:11;;;;;;;;;;;;;;;;;;4932168;29;19915;-45
2024/01/07 16:20:37;;;;;;;;;;;;;;;;;;4942314;28;19922;-47
2024/01/07 16:23:04;;;;;;;;;;;;;;;;;;4939506;28;19915;-45
2024/01/07 16:25:30;;;;;;;;;;;;;;;;;;4933073;28;19915;-48
2024/01/07 16:27:56;;;;;;;;;;;;;;;;;;4938823;28;19921;-46
2024/01/07 16:30:22;;;;;;;;;;;;;;;;;;4939083;29;20099;-45
2024/01/07 16:32:48;;;;;;;;;;;;;;;;;;4939502;29;19914;-45
2024/01/07 16:35:14;;;;;;;;;;;;;;;;;;4947852;29;20305;-46
2024/01/07 16:37:40;;;;;;;;;;;;;;;;;;4935133;29;19915;-45
2024/01/07 16:40:06;;;;;;;;;;;;;;;;;;4937332;29;19938;-48
2024/01/07 16:42:33;;;;;;;;;;;;;;;;;;4948717;29;20385;-49
2024/01/07 16:44:59;;;;;;;;;;;;;;;;;;4951484;28;20498;-46
2024/01/07 16:47:25;;;;;;;;;;;;;;;;;;4950454;29;19949;-46
2024/01/07 16:49:52;;;;;;;;;;;;;;;;;;4951897;29;19914;-46
2024/01/07 16:52:17;;;;;;;;;;;;;;;;;;4949484;28;19925;-45
2024/01/07 16:54:46;;;;;;;;;;;;;;;;;;4947267;29;19915;-45
2024/01/07 16:57:12;;;;;;;;;;;;;;;;;;4965687;28;19984;-49
2024/01/07 16:59:39;;;;;;;;;;;;;;;;;;4951834;29;20298;-46
2024/01/07 17:02:05;;;;;;;;;;;;;;;;;;4960596;28;19918;-46
2024/01/07 17:04:31;;;;;;;;;;;;;;;;;;4954947;28;19925;-46
2024/01/07 17:06:57;;;;;;;;;;;;;;;;;;4949614;28;20297;-46
2024/01/07 17:09:23;;;;;;;;;;;;;;;;;;4950281;29;19914;-46
2024/01/07 17:11:49;;;;;;;;;;;;;;;;;;4951853;28;19922;-45
2024/01/07 17:14:15;;;;;;;;;;;;;;;;;;4950990;29;19914;-46
2024/01/07 17:16:42;;;;;;;;;;;;;;;;;;4951753;28;19915;-46
2024/01/07 17:19:09;;;;;;;;;;;;;;;;;;4939799;28;19954;-46
2024/01/07 17:21:36;;;;;;;;;;;;;;;;;;4950009;28;19914;-47
2024/01/07 17:24:02;;;;;;;;;;;;;;;;;;4946936;28;19914;-46
2024/01/07 17:26:28;;;;;;;;;;;;;;;;;;4945159;28;19914;-47
2024/01/07 17:28:54;;;;;;;;;;;;;;;;;;4944925;29;20008;-45
2024/01/07 17:31:20;;;;;;;;;;;;;;;;;;4944280;28;20001;-48
2024/01/07 17:33:46;;;;;;;;;;;;;;;;;;4943097;29;19915;-46
2024/01/07 17:36:15;;;;;;;;;;;;;;;;;;4945060;29;19918;-45
2024/01/07 17:38:41;;;;;;;;;;;;;;;;;;4951662;28;19949;-45
2024/01/07 17:41:06;;;;;;;;;;;;;;;;;;4946336;29;19981;-46
2024/01/07 17:43:32;;;;;;;;;;;;;;;;;;4930435;29;19958;-47
2024/01/07 17:45:58;;;;;;;;;;;;;;;;;;4944403;29;19965;-48
2024/01/07 17:48:24;;;;;;;;;;;;;;;;;;4942797;28;19922;-47
2024/01/07 17:50:50;;;;;;;;;;;;;;;;;;4957653;28;19922;-45
2024/01/07 17:53:16;;;;;;;;;;;;;;;;;;4960503;28;19910;-46
2024/01/07 17:55:42;;;;;;;;;;;;;;;;;;4949985;28;19997;-48
2024/01/07 17:58:09;;;;;;;;;;;;;;;;;;4947158;28;20445;-47
2024/01/07 18:00:34;;;;;;;;;;;;;;;;;;4952785;28;19925;-45
2024/01/07 18:03:06;;;;;;;;;;;;;;;;;;4943923;28;20298;-46
2024/01/07 18:05:32;;;;;;;;;;;;;;;;;;4944972;28;19925;-46
2024/01/07 18:07:58;;;;;;;;;;;;;;;;;;4935044;28;19921;-46
2024/01/07 18:10:24;;;;;;;;;;;;;;;;;;4932330;28;19926;-46
2024/01/07 18:12:50;;;;;;;;;;;;;;;;;;4931109;29;19954;-46
2024/01/07 18:15:16;;;;;;;;;;;;;;;;;;4961226;28;19938;-45
2024/01/07 18:17:45;;;;;;;;;;;;;;;;;;4946864;28;19974;-46
2024/01/07 18:20:11;;;;;;;;;;;;;;;;;;4940440;29;19915;-46
2024/01/07 18:22:37;;;;;;;;;;;;;;;;;;4930583;29;19926;-47
2024/01/07 18:25:03;;;;;;;;;;;;;;;;;;4948532;28;19922;-47
2024/01/07 18:27:29;;;;;;;;;;;;;;;;;;4930092;29;20413;-46
2024/01/07 18:29:56;;;;;;;;;;;;;;;;;;4944556;29;19962;-47
2024/01/07 18:32:23;;;;;;;;;;;;;;;;;;4950558;28;20337;-42
2024/01/07 18:34:50;;;;;;;;;;;;;;;;;;4951504;28;19921;-43
2024/01/07 18:37:16;;;;;;;;;;;;;;;;;;4952603;28;19915;-43
2024/01/07 18:39:42;;;;;;;;;;;;;;;;;;4945774;28;19957;-43
2024/01/07 18:42:08;;;;;;;;;;;;;;;;;;4932510;28;20402;-43
2024/01/07 18:44:35;;;;;;;;;;;;;;;;;;4942848;28;19918;-45
2024/01/07 18:47:01;;;;;;;;;;;;;;;;;;4951570;29;19910;-46
2024/01/07 18:49:27;;;;;;;;;;;;;;;;;;4957670;28;19914;-44
2024/01/07 18:51:54;;;;;;;;;;;;;;;;;;4951088;28;19919;-43
2024/01/07 18:54:20;;;;;;;;;;;;;;;;;;4944005;28;19914;-43
2024/01/07 18:56:46;;;;;;;;;;;;;;;;;;4946887;28;20436;-43
2024/01/07 18:59:12;;;;;;;;;;;;;;;;;;4937661;28;19915;-44
2024/01/07 19:01:39;;;;;;;;;;;;;;;;;;4945936;28;20017;-43
2024/01/07 19:04:05;;;;;;;;;;;;;;;;;;4936243;28;20298;-43
2024/01/07 19:06:31;;;;;;;;;;;;;;;;;;4940091;29;19922;-43
2024/01/07 19:08:58;;;;;;;;;;;;;;;;;;4939533;28;20214;-43
2024/01/07 19:11:24;;;;;;;;;;;;;;;;;;4943770;29;19965;-44
2024/01/07 19:13:50;;;;;;;;;;;;;;;;;;4947769;29;20010;-43
2024/01/07 19:16:16;;;;;;;;;;;;;;;;;;4932648;28;20056;-45
2024/01/07 19:18:42;;;;;;;;;;;;;;;;;;4933131;28;20432;-44
2024/01/07 19:21:08;;;;;;;;;;;;;;;;;;4941614;28;19989;-43
2024/01/07 19:23:37;;;;;;;;;;;;;;;;;;4946052;28;19922;-44
2024/01/07 19:26:03;;;;;;;;;;;;;;;;;;4939822;28;20294;-43
2024/01/07 19:28:29;;;;;;;;;;;;;;;;;;4932549;28;19974;-43
2024/01/07 19:30:55;;;;;;;;;;;;;;;;;;4942903;28;19964;-44
2024/01/07 19:33:21;;;;;;;;;;;;;;;;;;4945497;28;19921;-44
2024/01/07 19:35:47;;;;;;;;;;;;;;;;;;4949000;28;19922;-44
2024/01/07 19:38:13;;;;;;;;;;;;;;;;;;4932704;28;19921;-44
2024/01/07 19:40:39;;;;;;;;;;;;;;;;;;4939822;28;19922;-44
2024/01/07 19:43:05;;;;;;;;;;;;;;;;;;4932379;28;20366;-43
2024/01/07 19:45:31;;;;;;;;;;;;;;;;;;4949169;28;20018;-43
2024/01/07 19:47:57;;;;;;;;;;;;;;;;;;4939764;28;19926;-43
2024/01/07 19:50:25;;;;;;;;;;;;;;;;;;4941880;28;19937;-44
2024/01/07 19:52:51;;;;;;;;;;;;;;;;;;4934190;28;19914;-43
2024/01/07 19:55:18;;;;;;;;;;;;;;;;;;4935711;28;19962;-42
2024/01/07 19:57:44;;;;;;;;;;;;;;;;;;4939523;28;20345;-43
2024/01/07 20:00:12;;;;;;;;;;;;;;;;;;4932213;28;19915;-43
2024/01/07 20:02:38;;;;;;;;;;;;;;;;;;4934010;28;19919;-42
2024/01/07 20:05:04;;;;;;;;;;;;;;;;;;4941183;28;20385;-42
2024/01/07 20:07:30;;;;;;;;;;;;;;;;;;4932063;28;19919;-43
2024/01/07 20:09:55;;;;;;;;;;;;;;;;;;4930897;28;19911;-44
2024/01/07 20:12:21;;;;;;;;;;;;;;;;;;4932830;28;19962;-43
2024/01/07 20:14:47;;;;;;;;;;;;;;;;;;4931254;28;19919;-43
2024/01/07 20:17:13;;;;;;;;;;;;;;;;;;4931151;28;19915;-43
2024/01/07 20:19:39;;;;;;;;;;;;;;;;;;4929305;29;20039;-45
2024/01/07 20:22:05;;;;;;;;;;;;;;;;;;4929997;29;19921;-43
2024/01/07 20:24:32;;;;;;;;;;;;;;;;;;4930821;28;19918;-44
2024/01/07 20:26:58;;;;;;;;;;;;;;;;;;4938459;28;20016;-44
2024/01/07 20:29:24;;;;;;;;;;;;;;;;;;4939460;29;19921;-43
2024/01/07 20:31:50;;;;;;;;;;;;;;;;;;4939463;28;19918;-43
2024/01/07 20:34:18;;;;;;;;;;;;;;;;;;4947383;28;19958;-43
2024/01/07 20:36:44;;;;;;;;;;;;;;;;;;4947524;28;19914;-43
2024/01/07 20:39:10;;;;;;;;;;;;;;;;;;4948609;28;20396;-43
2024/01/07 20:41:36;;;;;;;;;;;;;;;;;;4946915;28;19918;-43
2024/01/07 20:44:02;;;;;;;;;;;;;;;;;;4930552;28;20470;-43
2024/01/07 20:46:28;;;;;;;;;;;;;;;;;;4930655;28;20413;-44
2024/01/07 20:48:54;;;;;;;;;;;;;;;;;;4941232;28;19921;-44
2024/01/07 20:51:20;;;;;;;;;;;;;;;;;;4934261;28;19915;-43
2024/01/07 20:53:46;;;;;;;;;;;;;;;;;;4938241;28;19954;-43
2024/01/07 20:56:12;;;;;;;;;;;;;;;;;;4930019;28;19965;-43
2024/01/07 20:58:38;;;;;;;;;;;;;;;;;;4930123;29;20371;-41
2024/01/07 21:01:04;;;;;;;;;;;;;;;;;;4941472;28;19923;-44
2024/01/07 21:03:30;;;;;;;;;;;;;;;;;;4946471;28;19932;-44
2024/01/07 21:05:58;;;;;;;;;;;;;;;;;;4930383;28;19914;-42
2024/01/07 21:08:24;;;;;;;;;;;;;;;;;;4929461;28;20350;-43
2024/01/07 21:10:50;;;;;;;;;;;;;;;;;;4942173;28;20286;-43
2024/01/07 21:13:16;;;;;;;;;;;;;;;;;;4948472;29;19946;-43
2024/01/07 21:15:42;;;;;;;;;;;;;;;;;;4946881;28;19915;-43
2024/01/07 21:18:08;;;;;;;;;;;;;;;;;;4930242;29;20372;-43
2024/01/07 21:20:37;;;;;;;;;;;;;;;;;;4930329;28;19923;-42
2024/01/07 21:23:03;;;;;;;;;;;;;;;;;;4948966;28;19921;-43
2024/01/07 21:25:28;;;;;;;;;;;;;;;;;;4948536;29;19910;-44
2024/01/07 21:27:54;;;;;;;;;;;;;;;;;;4948674;28;20301;-43
2024/01/07 21:30:20;;;;;;;;;;;;;;;;;;4936501;28;19973;-45
2024/01/07 21:32:46;;;;;;;;;;;;;;;;;;4936354;28;20420;-44
2024/01/07 21:35:12;;;;;;;;;;;;;;;;;;4949953;28;20285;-43
2024/01/07 21:37:38;;;;;;;;;;;;;;;;;;4945797;28;19914;-42
2024/01/07 21:40:04;;;;;;;;;;;;;;;;;;4948555;28;19939;-44
2024/01/07 21:42:31;;;;;;;;;;;;;;;;;;4933223;28;19919;-43
2024/01/07 21:44:57;;;;;;;;;;;;;;;;;;4937628;28;19973;-44
2024/01/07 21:47:23;;;;;;;;;;;;;;;;;;4962239;28;20512;-43
2024/01/07 21:49:48;;;;;;;;;;;;;;;;;;4948278;29;19917;-43
2024/01/07 21:52:14;;;;;;;;;;;;;;;;;;4948355;29;20340;-43
2024/01/07 21:54:40;;;;;;;;;;;;;;;;;;4947944;29;19906;-44
2024/01/07 21:57:06;;;;;;;;;;;;;;;;;;4948767;28;19922;-43
2024/01/07 21:59:32;;;;;;;;;;;;;;;;;;4948668;29;19914;-43
2024/01/07 22:01:58;;;;;;;;;;;;;;;;;;4949737;28;19922;-43
2024/01/07 22:04:24;;;;;;;;;;;;;;;;;;4943318;28;20415;-44
2024/01/07 22:06:50;;;;;;;;;;;;;;;;;;4946635;28;19922;-45
2024/01/07 22:09:17;;;;;;;;;;;;;;;;;;4952080;28;19911;-44
2024/01/07 22:11:43;;;;;;;;;;;;;;;;;;4951987;28;19922;-44
2024/01/07 22:14:09;;;;;;;;;;;;;;;;;;4951709;28;20416;-44
2024/01/07 22:16:36;;;;;;;;;;;;;;;;;;4935201;28;19951;-43
2024/01/07 22:19:02;;;;;;;;;;;;;;;;;;4944032;28;19943;-45
2024/01/07 22:21:28;;;;;;;;;;;;;;;;;;4934121;28;20100;-44
2024/01/07 22:23:54;;;;;;;;;;;;;;;;;;4933207;28;19918;-43
2024/01/07 22:26:20;;;;;;;;;;;;;;;;;;4938507;28;19914;-43
2024/01/07 22:28:46;;;;;;;;;;;;;;;;;;4952056;28;20302;-45
2024/01/07 22:31:12;;;;;;;;;;;;;;;;;;4949380;28;19922;-44
2024/01/07 22:33:38;;;;;;;;;;;;;;;;;;4951406;28;19922;-44
2024/01/07 22:36:03;;;;;;;;;;;;;;;;;;4960258;28;19914;-44
2024/01/07 22:38:29;;;;;;;;;;;;;;;;;;4948733;29;19914;-45
2024/01/07 22:40:55;;;;;;;;;;;;;;;;;;4951227;29;19930;-45
2024/01/07 22:43:21;;;;;;;;;;;;;;;;;;4951469;28;20472;-44
2024/01/07 22:45:47;;;;;;;;;;;;;;;;;;4938145;28;20401;-43
2024/01/07 22:48:13;;;;;;;;;;;;;;;;;;4931991;29;20017;-44